createdAt,value
2023-04-18T00:00:42.956Z,7.30
2023-04-18T00:01:42.986Z,7.27
2023-04-18T00:02:43.014Z,7.23
2023-04-18T00:03:43.162Z,7.23
2023-04-18T00:04:43.012Z,7.20
2023-04-18T00:05:42.903Z,7.16
2023-04-18T00:06:42.888Z,7.13
2023-04-18T00:07:42.878Z,7.09
2023-04-18T00:08:42.867Z,7.05
2023-04-18T00:09:42.931Z,7.02
2023-04-18T00:10:42.841Z,6.98
2023-04-18T00:11:42.832Z,6.94
2023-04-18T00:12:42.817Z,6.91
2023-04-18T00:13:42.809Z,6.85
2023-04-18T00:14:42.865Z,6.80
2023-04-18T00:15:42.789Z,6.79
2023-04-18T00:16:42.896Z,6.76
2023-04-18T00:17:42.796Z,6.70
2023-04-18T00:18:42.751Z,6.69
2023-04-18T00:19:42.759Z,6.64
2023-04-18T00:20:42.733Z,6.61
2023-04-18T00:21:42.722Z,6.58
2023-04-18T00:22:43.027Z,6.54
2023-04-18T00:23:42.703Z,6.51
2023-04-18T00:24:42.703Z,6.49
2023-04-18T00:25:42.693Z,6.44
2023-04-18T00:26:42.670Z,6.44
2023-04-18T00:27:42.659Z,6.41
2023-04-18T00:28:42.640Z,6.38
2023-04-18T00:29:42.655Z,6.36
2023-04-18T00:30:42.636Z,6.33
2023-04-18T00:31:42.669Z,6.28
2023-04-18T00:32:42.688Z,6.22
2023-04-18T00:33:42.592Z,6.19
2023-04-18T00:34:42.599Z,6.17
2023-04-18T00:35:42.578Z,6.15
2023-04-18T00:36:42.626Z,6.15
2023-04-18T00:37:42.595Z,6.14
2023-04-18T00:38:42.556Z,6.14
2023-04-18T00:39:42.548Z,6.12
2023-04-18T00:40:42.509Z,6.14
2023-04-18T00:41:42.512Z,6.14
2023-04-18T00:42:42.490Z,6.11
2023-04-18T00:43:42.483Z,6.11
2023-04-18T00:44:42.489Z,6.14
2023-04-18T00:45:42.464Z,6.12
2023-04-18T00:46:42.511Z,6.11
2023-04-18T00:47:42.458Z,6.15
2023-04-18T00:48:42.549Z,6.14
2023-04-18T00:49:42.433Z,6.12
2023-04-18T00:50:42.463Z,6.11
2023-04-18T00:51:42.446Z,6.14
2023-04-18T00:52:42.382Z,6.12
2023-04-18T00:53:42.378Z,6.06
2023-04-18T00:54:42.365Z,6.06
2023-04-18T00:55:42.409Z,6.06
2023-04-18T00:56:42.392Z,6.03
2023-04-18T00:57:42.394Z,6.00
2023-04-18T00:58:42.321Z,5.94
2023-04-18T00:59:42.361Z,5.93
2023-04-18T01:00:42.297Z,5.91
2023-04-18T01:01:42.344Z,5.86
2023-04-18T01:02:42.428Z,5.82
2023-04-18T01:03:42.529Z,5.83
2023-04-18T01:04:42.562Z,5.83
2023-04-18T01:05:42.241Z,5.85
2023-04-18T01:06:42.238Z,5.85
2023-04-18T01:07:42.223Z,5.90
2023-04-18T01:08:42.238Z,5.85
2023-04-18T01:09:42.203Z,5.86
2023-04-18T01:10:42.193Z,5.86
2023-04-18T01:11:42.174Z,5.83
2023-04-18T01:12:42.168Z,5.85
2023-04-18T01:13:42.221Z,5.86
2023-04-18T01:14:42.156Z,5.81
2023-04-18T01:15:42.205Z,5.78
2023-04-18T01:16:42.181Z,5.82
2023-04-18T01:17:42.146Z,5.79
2023-04-18T01:18:42.099Z,5.74
2023-04-18T01:19:42.117Z,5.76
2023-04-18T01:20:42.194Z,5.76
2023-04-18T01:21:42.099Z,5.76
2023-04-18T01:22:42.068Z,5.68
2023-04-18T01:23:42.146Z,5.63
2023-04-18T01:24:42.069Z,5.61
2023-04-18T01:25:42.024Z,5.56
2023-04-18T01:26:42.057Z,5.53
2023-04-18T01:27:42.001Z,5.53
2023-04-18T01:28:42.065Z,5.53
2023-04-18T01:29:42.014Z,5.54
2023-04-18T01:30:42.009Z,5.51
2023-04-18T01:31:42.097Z,5.49
2023-04-18T01:32:42.017Z,5.48
2023-04-18T01:33:41.990Z,5.46
2023-04-18T01:34:41.937Z,5.46
2023-04-18T01:35:41.916Z,5.46
2023-04-18T01:36:41.939Z,5.45
2023-04-18T01:37:41.893Z,5.43
2023-04-18T01:38:41.918Z,5.40
2023-04-18T01:39:41.878Z,5.40
2023-04-18T01:40:41.913Z,5.40
2023-04-18T01:41:41.848Z,5.39
2023-04-18T01:42:41.842Z,5.36
2023-04-18T01:43:41.851Z,5.36
2023-04-18T01:44:41.910Z,5.33
2023-04-18T01:45:41.841Z,5.35
2023-04-18T01:46:41.947Z,5.35
2023-04-18T01:47:41.798Z,5.38
2023-04-18T01:48:41.910Z,5.36
2023-04-18T01:49:41.861Z,5.31
2023-04-18T01:50:41.764Z,5.28
2023-04-18T01:51:41.738Z,5.33
2023-04-18T01:52:41.767Z,5.35
2023-04-18T01:53:41.786Z,5.39
2023-04-18T01:54:41.725Z,5.42
2023-04-18T01:55:41.696Z,5.38
2023-04-18T01:56:41.700Z,5.33
2023-04-18T01:57:41.665Z,5.33
2023-04-18T01:58:41.707Z,5.35
2023-04-18T01:59:41.662Z,5.33
2023-04-18T02:00:41.646Z,5.31
2023-04-18T02:01:41.628Z,5.25
2023-04-18T02:02:41.844Z,5.22
2023-04-18T02:03:41.787Z,5.18
2023-04-18T02:04:41.615Z,5.15
2023-04-18T02:05:41.588Z,5.13
2023-04-18T02:06:41.632Z,5.17
2023-04-18T02:07:41.562Z,5.17
2023-04-18T02:08:41.566Z,5.13
2023-04-18T02:09:41.551Z,5.12
2023-04-18T02:10:41.539Z,5.06
2023-04-18T02:11:41.602Z,5.03
2023-04-18T02:12:41.545Z,5.02
2023-04-18T02:13:41.512Z,5.00
2023-04-18T02:14:41.510Z,4.99
2023-04-18T02:15:41.504Z,4.97
2023-04-18T02:16:41.554Z,4.94
2023-04-18T02:17:41.678Z,4.94
2023-04-18T02:18:41.449Z,4.94
2023-04-18T02:19:41.447Z,4.91
2023-04-18T02:20:41.495Z,4.88
2023-04-18T02:21:41.420Z,4.82
2023-04-18T02:22:41.428Z,4.80
2023-04-18T02:23:41.391Z,4.84
2023-04-18T02:24:41.404Z,4.82
2023-04-18T02:25:41.440Z,4.82
2023-04-18T02:26:41.386Z,4.77
2023-04-18T02:27:41.337Z,4.75
2023-04-18T02:28:41.532Z,4.70
2023-04-18T02:29:41.351Z,4.66
2023-04-18T02:30:41.451Z,4.66
2023-04-18T02:31:41.395Z,4.66
2023-04-18T02:32:41.361Z,4.66
2023-04-18T02:33:41.298Z,4.59
2023-04-18T02:34:41.277Z,4.60
2023-04-18T02:35:41.260Z,4.58
2023-04-18T02:36:41.269Z,4.55
2023-04-18T02:37:41.238Z,4.54
2023-04-18T02:38:41.299Z,4.52
2023-04-18T02:39:41.215Z,4.48
2023-04-18T02:40:41.213Z,4.45
2023-04-18T02:41:41.194Z,4.44
2023-04-18T02:42:41.202Z,4.42
2023-04-18T02:43:41.185Z,4.41
2023-04-18T02:44:41.172Z,4.41
2023-04-18T02:45:41.267Z,4.41
2023-04-18T02:46:41.160Z,4.42
2023-04-18T02:47:53.735Z,4.51
2023-04-18T02:48:42.133Z,4.51
2023-04-18T02:49:41.109Z,4.54
2023-04-18T02:50:41.100Z,4.54
2023-04-18T02:51:41.097Z,4.55
2023-04-18T02:52:41.086Z,4.59
2023-04-18T02:53:41.084Z,4.59
2023-04-18T02:54:41.057Z,4.59
2023-04-18T02:55:41.049Z,4.60
2023-04-18T02:56:41.042Z,4.59
2023-04-18T02:57:41.017Z,4.58
2023-04-18T02:58:41.036Z,4.55
2023-04-18T02:59:41.012Z,4.54
2023-04-18T03:00:40.998Z,4.58
2023-04-18T03:01:41.097Z,4.59
2023-04-18T03:02:41.113Z,4.58
2023-04-18T03:03:40.965Z,4.65
2023-04-18T03:04:40.988Z,4.70
2023-04-18T03:05:40.934Z,4.72
2023-04-18T03:06:40.944Z,4.75
2023-04-18T03:07:41.081Z,4.69
2023-04-18T03:08:40.954Z,4.63
2023-04-18T03:09:40.966Z,4.58
2023-04-18T03:10:40.874Z,4.54
2023-04-18T03:11:40.868Z,4.51
2023-04-18T03:12:40.846Z,4.47
2023-04-18T03:13:40.902Z,4.45
2023-04-18T03:14:40.832Z,4.47
2023-04-18T03:15:40.835Z,4.45
2023-04-18T03:16:40.817Z,4.41
2023-04-18T03:17:40.848Z,4.41
2023-04-18T03:18:40.809Z,4.42
2023-04-18T03:19:40.789Z,4.42
2023-04-18T03:20:40.798Z,4.40
2023-04-18T03:21:40.756Z,4.34
2023-04-18T03:22:40.748Z,4.33
2023-04-18T03:23:40.749Z,4.34
2023-04-18T03:24:40.801Z,4.32
2023-04-18T03:25:40.738Z,4.30
2023-04-18T03:26:40.730Z,4.29
2023-04-18T03:27:40.690Z,4.40
2023-04-18T03:28:40.691Z,4.37
2023-04-18T03:29:40.720Z,4.36
2023-04-18T03:30:40.650Z,4.33
2023-04-18T03:31:40.765Z,4.34
2023-04-18T03:32:40.682Z,4.34
2023-04-18T03:33:40.652Z,4.32
2023-04-18T03:34:40.633Z,4.34
2023-04-18T03:35:40.613Z,4.34
2023-04-18T03:36:40.588Z,4.33
2023-04-18T03:37:40.595Z,4.32
2023-04-18T03:38:40.597Z,4.30
2023-04-18T03:39:40.638Z,4.32
2023-04-18T03:40:40.565Z,4.34
2023-04-18T03:41:40.548Z,4.33
2023-04-18T03:42:40.524Z,4.32
2023-04-18T03:43:40.535Z,4.30
2023-04-18T03:44:40.501Z,4.29
2023-04-18T03:45:40.499Z,4.30
2023-04-18T03:46:40.544Z,4.29
2023-04-18T03:47:40.550Z,4.30
2023-04-18T03:48:40.485Z,4.30
2023-04-18T03:49:40.540Z,4.30
2023-04-18T03:50:40.516Z,4.30
2023-04-18T03:51:40.428Z,4.34
2023-04-18T03:52:40.448Z,4.33
2023-04-18T03:53:40.457Z,4.32
2023-04-18T03:54:40.392Z,4.36
2023-04-18T03:55:40.393Z,4.37
2023-04-18T03:56:40.379Z,4.36
2023-04-18T03:57:41.406Z,4.47
2023-04-18T03:58:40.413Z,4.50
2023-04-18T03:59:40.353Z,4.52
2023-04-18T04:00:40.349Z,4.51
2023-04-18T04:01:40.368Z,4.48
2023-04-18T04:02:40.496Z,4.45
2023-04-18T04:03:40.551Z,4.44
2023-04-18T04:04:40.350Z,4.40
2023-04-18T04:05:40.291Z,4.34
2023-04-18T04:06:40.291Z,4.34
2023-04-18T04:07:40.295Z,4.33
2023-04-18T04:08:40.325Z,4.32
2023-04-18T04:09:40.236Z,4.32
2023-04-18T04:10:40.236Z,4.33
2023-04-18T04:11:40.219Z,4.32
2023-04-18T04:12:40.293Z,4.34
2023-04-18T04:13:40.218Z,4.33
2023-04-18T04:14:40.184Z,4.33
2023-04-18T04:15:40.199Z,4.32
2023-04-18T04:16:40.244Z,4.32
2023-04-18T04:17:40.227Z,4.32
2023-04-18T04:18:40.305Z,4.32
2023-04-18T04:19:40.196Z,4.32
2023-04-18T04:20:40.153Z,4.36
2023-04-18T04:21:40.106Z,4.36
2023-04-18T04:22:40.126Z,4.36
2023-04-18T04:23:40.118Z,4.34
2023-04-18T04:24:40.177Z,4.30
2023-04-18T04:25:40.123Z,4.32
2023-04-18T04:26:40.134Z,4.32
2023-04-18T04:27:40.038Z,4.33
2023-04-18T04:28:40.082Z,4.34
2023-04-18T04:29:40.029Z,4.33
2023-04-18T04:30:40.016Z,4.32
2023-04-18T04:31:40.023Z,4.32
2023-04-18T04:32:40.031Z,4.34
2023-04-18T04:33:39.986Z,4.36
2023-04-18T04:34:39.965Z,4.33
2023-04-18T04:35:39.961Z,4.34
2023-04-18T04:36:39.948Z,4.34
2023-04-18T04:37:39.976Z,4.37
2023-04-18T04:38:39.944Z,4.37
2023-04-18T04:39:40.006Z,4.37
2023-04-18T04:40:39.995Z,4.41
2023-04-18T04:41:39.888Z,4.48
2023-04-18T04:42:39.872Z,4.54
2023-04-18T04:43:39.954Z,4.58
2023-04-18T04:44:39.925Z,4.58
2023-04-18T04:45:39.845Z,4.59
2023-04-18T04:46:39.829Z,4.58
2023-04-18T04:47:39.864Z,4.55
2023-04-18T04:48:39.814Z,4.60
2023-04-18T04:49:39.804Z,4.59
2023-04-18T04:50:39.790Z,4.58
2023-04-18T04:51:39.783Z,4.55
2023-04-18T04:52:39.816Z,4.59
2023-04-18T04:53:39.780Z,4.55
2023-04-18T04:54:39.736Z,4.59
2023-04-18T04:55:39.734Z,4.60
2023-04-18T04:56:39.719Z,4.66
2023-04-18T04:57:39.712Z,4.70
2023-04-18T04:58:39.829Z,4.80
2023-04-18T04:59:39.723Z,4.85
2023-04-18T05:00:39.683Z,4.89
2023-04-18T05:01:39.700Z,4.92
2023-04-18T05:02:39.817Z,4.96
2023-04-18T05:03:39.991Z,4.97
2023-04-18T05:04:39.773Z,4.99
2023-04-18T05:05:39.639Z,5.03
2023-04-18T05:06:40.386Z,5.02
2023-04-18T05:07:39.653Z,5.06
2023-04-18T05:08:39.590Z,5.06
2023-04-18T05:09:39.638Z,5.12
2023-04-18T05:10:39.639Z,5.13
2023-04-18T05:11:39.642Z,5.17
2023-04-18T05:12:39.572Z,5.17
2023-04-18T05:13:39.538Z,5.18
2023-04-18T05:14:39.593Z,5.18
2023-04-18T05:15:39.525Z,5.20
2023-04-18T05:16:39.551Z,5.20
2023-04-18T05:17:39.525Z,5.20
2023-04-18T05:18:39.501Z,5.18
2023-04-18T05:19:39.484Z,5.20
2023-04-18T05:20:39.510Z,5.20
2023-04-18T05:21:39.448Z,5.21
2023-04-18T05:22:39.438Z,5.25
2023-04-18T05:23:39.443Z,5.25
2023-04-18T05:24:39.410Z,5.28
2023-04-18T05:25:39.420Z,5.30
2023-04-18T05:26:39.410Z,5.33
2023-04-18T05:27:39.436Z,5.38
2023-04-18T05:28:39.389Z,5.40
2023-04-18T05:29:39.359Z,5.43
2023-04-18T05:30:39.392Z,5.48
2023-04-18T05:31:39.368Z,5.53
2023-04-18T05:32:39.408Z,5.53
2023-04-18T05:33:39.322Z,5.51
2023-04-18T05:34:39.300Z,5.57
2023-04-18T05:35:39.297Z,5.58
2023-04-18T05:36:39.298Z,5.60
2023-04-18T05:37:39.344Z,5.61
2023-04-18T05:38:39.256Z,5.63
2023-04-18T05:39:39.255Z,5.64
2023-04-18T05:40:39.251Z,5.67
2023-04-18T05:41:39.230Z,5.72
2023-04-18T05:42:39.243Z,5.75
2023-04-18T05:43:39.279Z,5.74
2023-04-18T05:44:39.206Z,5.75
2023-04-18T05:45:39.191Z,5.78
2023-04-18T05:46:39.413Z,5.78
2023-04-18T05:47:39.301Z,5.78
2023-04-18T05:48:39.237Z,5.76
2023-04-18T05:49:39.158Z,5.78
2023-04-18T05:50:39.136Z,5.79
2023-04-18T05:51:39.115Z,5.82
2023-04-18T05:52:39.249Z,5.83
2023-04-18T05:53:39.135Z,5.83
2023-04-18T05:54:39.097Z,5.85
2023-04-18T05:55:39.076Z,5.90
2023-04-18T05:56:39.071Z,5.90
2023-04-18T05:57:39.127Z,5.96
2023-04-18T05:58:39.161Z,5.97
2023-04-18T05:59:39.033Z,6.00
2023-04-18T06:00:39.025Z,6.04
2023-04-18T06:01:39.028Z,6.08
2023-04-18T06:02:39.151Z,6.12
2023-04-18T06:03:39.152Z,6.19
2023-04-18T06:04:39.098Z,6.31
2023-04-18T06:05:39.088Z,6.41
2023-04-18T06:06:38.998Z,6.55
2023-04-18T06:07:38.998Z,6.67
2023-04-18T06:08:39.001Z,6.76
2023-04-18T06:09:39.025Z,6.88
2023-04-18T06:10:39.214Z,7.02
2023-04-18T06:11:39.007Z,7.16
2023-04-18T06:12:38.998Z,7.24
2023-04-18T06:13:38.882Z,7.34
2023-04-18T06:14:38.911Z,7.45
2023-04-18T06:15:38.977Z,7.50
2023-04-18T06:16:39.076Z,7.57
2023-04-18T06:17:38.937Z,7.63
2023-04-18T06:18:38.849Z,7.67
2023-04-18T06:19:38.834Z,7.69
2023-04-18T06:20:38.811Z,7.72
2023-04-18T06:21:38.793Z,7.79
2023-04-18T06:22:38.816Z,7.82
2023-04-18T06:23:38.811Z,7.87
2023-04-18T06:24:38.750Z,7.98
2023-04-18T06:25:38.763Z,8.07
2023-04-18T06:26:38.765Z,8.15
2023-04-18T06:27:38.770Z,8.23
2023-04-18T06:28:38.719Z,8.29
2023-04-18T06:29:38.708Z,8.37
2023-04-18T06:30:38.691Z,8.47
2023-04-18T06:31:38.720Z,8.56
2023-04-18T06:32:38.726Z,8.68
2023-04-18T06:33:38.662Z,8.79
2023-04-18T06:34:38.671Z,8.87
2023-04-18T06:35:38.646Z,8.96
2023-04-18T06:36:38.631Z,8.99
2023-04-18T06:37:38.633Z,9.05
2023-04-18T06:38:38.620Z,9.15
2023-04-18T06:39:38.601Z,9.24
2023-04-18T06:40:38.695Z,9.33
2023-04-18T06:41:38.600Z,9.40
2023-04-18T06:42:38.592Z,9.47
2023-04-18T06:43:38.578Z,9.50
2023-04-18T06:44:38.563Z,9.48
2023-04-18T06:45:38.616Z,9.53
2023-04-18T06:46:38.589Z,9.58
2023-04-18T06:47:38.563Z,9.64
2023-04-18T06:48:38.535Z,9.71
2023-04-18T06:49:38.541Z,9.78
2023-04-18T06:50:38.517Z,9.84
2023-04-18T06:51:38.512Z,9.90
2023-04-18T06:52:38.542Z,10.01
2023-04-18T06:53:38.510Z,10.08
2023-04-18T06:54:38.435Z,10.12
2023-04-18T06:55:38.416Z,10.12
2023-04-18T06:56:38.418Z,10.20
2023-04-18T06:57:38.412Z,10.29
2023-04-18T06:58:38.383Z,10.30
2023-04-18T06:59:38.391Z,10.38
2023-04-18T07:00:38.362Z,10.41
2023-04-18T07:01:38.510Z,10.51
2023-04-18T07:02:38.583Z,10.59
2023-04-18T07:03:38.362Z,10.61
2023-04-18T07:04:38.395Z,10.70
2023-04-18T07:05:38.329Z,10.78
2023-04-18T07:06:38.290Z,10.79
2023-04-18T07:07:38.301Z,10.86
2023-04-18T07:08:38.286Z,10.91
2023-04-18T07:09:38.260Z,10.96
2023-04-18T07:10:38.252Z,10.97
2023-04-18T07:11:38.249Z,10.92
2023-04-18T07:12:38.232Z,10.97
2023-04-18T07:13:38.252Z,11.02
2023-04-18T07:14:38.279Z,11.04
2023-04-18T07:15:38.211Z,11.10
2023-04-18T07:16:38.251Z,11.19
2023-04-18T07:17:38.258Z,11.18
2023-04-18T07:18:38.714Z,11.14
2023-04-18T07:19:38.153Z,11.18
2023-04-18T07:20:38.186Z,11.19
2023-04-18T07:21:38.128Z,11.21
2023-04-18T07:22:38.133Z,11.27
2023-04-18T07:23:38.130Z,11.35
2023-04-18T07:24:38.212Z,11.42
2023-04-18T07:25:38.083Z,11.52
2023-04-18T07:26:38.067Z,11.60
2023-04-18T07:27:38.076Z,11.64
2023-04-18T07:28:38.054Z,11.67
2023-04-18T07:29:38.051Z,11.58
2023-04-18T07:30:38.101Z,11.55
2023-04-18T07:31:38.016Z,11.64
2023-04-18T07:32:38.216Z,11.69
2023-04-18T07:33:38.018Z,11.60
2023-04-18T07:34:38.038Z,11.54
2023-04-18T07:35:37.978Z,11.47
2023-04-18T07:36:37.951Z,11.40
2023-04-18T07:37:38.042Z,11.24
2023-04-18T07:38:37.941Z,11.22
2023-04-18T07:39:37.932Z,11.32
2023-04-18T07:40:37.914Z,11.29
2023-04-18T07:41:37.906Z,11.37
2023-04-18T07:42:37.908Z,11.47
2023-04-18T07:43:37.890Z,11.27
2023-04-18T07:44:37.889Z,11.17
2023-04-18T07:45:37.870Z,11.15
2023-04-18T07:46:37.939Z,11.22
2023-04-18T07:47:37.900Z,11.27
2023-04-18T07:48:37.831Z,11.40
2023-04-18T07:49:37.815Z,11.62
2023-04-18T07:50:37.886Z,11.65
2023-04-18T07:51:37.852Z,11.72
2023-04-18T07:52:39.325Z,11.86
2023-04-18T07:53:38.000Z,11.95
2023-04-18T07:54:37.767Z,12.04
2023-04-18T07:55:37.757Z,12.07
2023-04-18T07:56:37.770Z,12.14
2023-04-18T07:57:37.741Z,12.19
2023-04-18T07:58:37.733Z,12.29
2023-04-18T07:59:37.719Z,12.24
2023-04-18T08:00:37.701Z,12.17
2023-04-18T08:01:37.700Z,12.02
2023-04-18T08:02:37.800Z,12.02
2023-04-18T08:03:37.757Z,11.99
2023-04-18T08:04:37.878Z,12.02
2023-04-18T08:05:37.859Z,11.99
2023-04-18T08:06:37.632Z,12.02
2023-04-18T08:07:37.653Z,12.02
2023-04-18T08:08:37.735Z,12.16
2023-04-18T08:09:37.606Z,12.21
2023-04-18T08:10:37.597Z,12.41
2023-04-18T08:11:37.599Z,12.53
2023-04-18T08:12:37.609Z,12.68
2023-04-18T08:13:37.561Z,12.77
2023-04-18T08:14:37.546Z,12.78
2023-04-18T08:15:37.551Z,12.75
2023-04-18T08:16:37.614Z,12.67
2023-04-18T08:17:37.631Z,12.70
2023-04-18T08:18:37.520Z,12.71
2023-04-18T08:19:37.507Z,12.82
2023-04-18T08:20:37.485Z,12.90
2023-04-18T08:21:37.482Z,12.79
2023-04-18T08:22:46.798Z,12.71
2023-04-18T08:23:38.553Z,12.70
2023-04-18T08:24:37.438Z,12.64
2023-04-18T08:25:37.438Z,12.67
2023-04-18T08:26:37.461Z,12.65
2023-04-18T08:27:37.418Z,12.57
2023-04-18T08:28:37.404Z,12.47
2023-04-18T08:29:37.394Z,12.37
2023-04-18T08:30:37.373Z,12.24
2023-04-18T08:31:37.387Z,12.24
2023-04-18T08:32:37.431Z,12.17
2023-04-18T08:33:37.346Z,12.16
2023-04-18T08:34:37.374Z,12.13
2023-04-18T08:35:37.326Z,11.99
2023-04-18T08:36:37.315Z,11.94
2023-04-18T08:37:37.327Z,11.88
2023-04-18T08:38:37.300Z,11.79
2023-04-18T08:39:37.277Z,11.79
2023-04-18T08:40:37.270Z,11.95
2023-04-18T08:41:37.293Z,12.04
2023-04-18T08:42:37.255Z,12.07
2023-04-18T08:43:37.258Z,12.05
2023-04-18T08:44:37.232Z,12.07
2023-04-18T08:45:37.242Z,12.02
2023-04-18T08:46:37.202Z,12.04
2023-04-18T08:47:37.236Z,12.05
2023-04-18T08:48:37.193Z,11.98
2023-04-18T08:49:37.194Z,11.98
2023-04-18T08:50:37.159Z,11.88
2023-04-18T08:51:37.141Z,11.76
2023-04-18T08:52:37.142Z,11.70
2023-04-18T08:53:37.139Z,11.72
2023-04-18T08:54:37.104Z,11.79
2023-04-18T08:55:37.125Z,11.85
2023-04-18T08:56:37.107Z,11.83
2023-04-18T08:57:37.091Z,11.85
2023-04-18T08:58:37.085Z,11.90
2023-04-18T08:59:37.077Z,11.88
2023-04-18T09:00:37.036Z,11.88
2023-04-18T09:01:37.140Z,11.85
2023-04-18T09:02:37.055Z,11.86
2023-04-18T09:03:37.250Z,11.94
2023-04-18T09:04:37.097Z,11.86
2023-04-18T09:05:36.999Z,11.82
2023-04-18T09:06:37.026Z,11.78
2023-04-18T09:07:36.980Z,11.79
2023-04-18T09:08:36.964Z,11.82
2023-04-18T09:09:36.992Z,11.85
2023-04-18T09:10:36.936Z,11.85
2023-04-18T09:11:36.918Z,11.80
2023-04-18T09:12:36.925Z,11.75
2023-04-18T09:13:36.913Z,11.76
2023-04-18T09:14:36.895Z,11.76
2023-04-18T09:15:36.877Z,11.76
2023-04-18T09:16:36.885Z,11.83
2023-04-18T09:17:36.909Z,11.88
2023-04-18T09:18:36.880Z,11.98
2023-04-18T09:19:36.844Z,12.07
2023-04-18T09:20:36.844Z,12.12
2023-04-18T09:21:36.798Z,12.12
2023-04-18T09:22:37.955Z,12.09
2023-04-18T09:23:36.791Z,12.07
2023-04-18T09:24:36.769Z,12.04
2023-04-18T09:25:37.502Z,11.94
2023-04-18T09:26:36.762Z,11.96
2023-04-18T09:27:36.854Z,11.94
2023-04-18T09:28:36.738Z,11.94
2023-04-18T09:29:36.724Z,11.98
2023-04-18T09:30:36.764Z,12.02
2023-04-18T09:31:36.702Z,12.05
2023-04-18T09:32:36.787Z,12.13
2023-04-18T09:33:36.684Z,12.16
2023-04-18T09:34:36.759Z,12.16
2023-04-18T09:35:36.666Z,12.09
2023-04-18T09:36:36.650Z,12.01
2023-04-18T09:37:36.645Z,11.98
2023-04-18T09:38:36.625Z,12.04
2023-04-18T09:39:36.596Z,12.05
2023-04-18T09:40:36.608Z,12.05
2023-04-18T09:41:36.582Z,12.05
2023-04-18T09:42:36.587Z,12.04
2023-04-18T09:43:36.560Z,12.05
2023-04-18T09:44:36.555Z,12.17
2023-04-18T09:45:36.531Z,12.20
2023-04-18T09:46:36.572Z,12.27
2023-04-18T09:47:36.786Z,12.45
2023-04-18T09:48:36.512Z,12.82
2023-04-18T09:49:36.515Z,13.01
2023-04-18T09:50:36.489Z,12.96
2023-04-18T09:51:36.466Z,12.78
2023-04-18T09:52:36.474Z,12.87
2023-04-18T09:53:36.446Z,12.97
2023-04-18T09:54:36.476Z,13.10
2023-04-18T09:55:36.455Z,13.29
2023-04-18T09:56:36.438Z,13.25
2023-04-18T09:57:36.410Z,13.07
2023-04-18T09:58:36.398Z,12.92
2023-04-18T09:59:36.379Z,12.89
2023-04-18T10:00:36.366Z,12.85
2023-04-18T10:01:36.477Z,12.78
2023-04-18T10:02:36.437Z,12.71
2023-04-18T10:03:36.419Z,12.65
2023-04-18T10:04:36.355Z,12.56
2023-04-18T10:05:36.378Z,12.57
2023-04-18T10:06:36.311Z,12.62
2023-04-18T10:07:36.289Z,12.72
2023-04-18T10:08:36.282Z,12.86
2023-04-18T10:09:36.283Z,12.92
2023-04-18T10:10:37.517Z,12.95
2023-04-18T10:11:36.291Z,12.96
2023-04-18T10:12:36.239Z,13.05
2023-04-18T10:13:36.227Z,13.17
2023-04-18T10:14:36.211Z,13.25
2023-04-18T10:15:36.292Z,13.28
2023-04-18T10:16:36.539Z,13.28
2023-04-18T10:17:36.200Z,13.25
2023-04-18T10:18:36.224Z,13.20
2023-04-18T10:19:36.170Z,13.11
2023-04-18T10:20:36.292Z,13.04
2023-04-18T10:21:36.168Z,12.97
2023-04-18T10:22:36.114Z,12.86
2023-04-18T10:23:36.191Z,12.85
2023-04-18T10:24:36.097Z,12.86
2023-04-18T10:25:36.100Z,12.95
2023-04-18T10:26:36.098Z,13.04
2023-04-18T10:27:36.067Z,13.15
2023-04-18T10:28:36.053Z,13.26
2023-04-18T10:29:36.049Z,13.29
2023-04-18T10:30:36.032Z,13.25
2023-04-18T10:31:36.086Z,13.26
2023-04-18T10:32:36.059Z,13.45
2023-04-18T10:33:36.910Z,13.54
2023-04-18T10:34:36.993Z,13.60
2023-04-18T10:35:36.032Z,13.54
2023-04-18T10:36:35.980Z,13.66
2023-04-18T10:37:35.959Z,13.64
2023-04-18T10:38:35.951Z,13.60
2023-04-18T10:39:35.937Z,13.59
2023-04-18T10:40:35.947Z,13.70
2023-04-18T10:41:35.936Z,13.77
2023-04-18T10:42:35.899Z,13.79
2023-04-18T10:43:35.900Z,13.82
2023-04-18T10:44:35.877Z,13.84
2023-04-18T10:45:35.869Z,13.73
2023-04-18T10:46:35.899Z,13.67
2023-04-18T10:47:36.108Z,13.69
2023-04-18T10:49:36.559Z,13.81
2023-04-18T10:50:35.813Z,13.81
2023-04-18T10:51:35.870Z,13.75
2023-04-18T10:52:35.876Z,13.70
2023-04-18T10:53:35.792Z,13.71
2023-04-18T10:54:35.857Z,13.70
2023-04-18T10:55:35.769Z,13.70
2023-04-18T10:56:35.794Z,13.71
2023-04-18T10:57:35.807Z,13.78
2023-04-18T10:58:35.735Z,13.78
2023-04-18T10:59:35.734Z,13.71
2023-04-18T11:00:35.725Z,13.66
2023-04-18T11:01:35.782Z,13.70
2023-04-18T11:02:35.793Z,14.03
2023-04-18T11:03:35.844Z,14.17
2023-04-18T11:04:35.761Z,14.15
2023-04-18T11:05:35.677Z,14.18
2023-04-18T11:06:35.663Z,14.42
2023-04-18T11:07:35.651Z,14.40
2023-04-18T11:08:35.742Z,14.37
2023-04-18T11:09:35.631Z,14.29
2023-04-18T11:10:35.693Z,14.32
2023-04-18T11:11:35.628Z,14.28
2023-04-18T11:12:36.381Z,14.21
2023-04-18T11:13:35.575Z,14.22
2023-04-18T11:14:35.642Z,14.20
2023-04-18T11:15:35.585Z,14.29
2023-04-18T11:16:35.638Z,14.40
2023-04-18T11:17:35.610Z,14.60
2023-04-18T11:18:35.554Z,14.84
2023-04-18T11:19:35.508Z,14.95
2023-04-18T11:20:35.495Z,14.81
2023-04-18T11:21:35.496Z,14.65
2023-04-18T11:22:35.581Z,14.46
2023-04-18T11:23:35.481Z,14.33
2023-04-18T11:24:35.444Z,14.25
2023-04-18T11:25:35.447Z,14.21
2023-04-18T11:26:36.210Z,14.24
2023-04-18T11:27:35.427Z,14.22
2023-04-18T11:28:35.413Z,14.12
2023-04-18T11:29:35.426Z,14.06
2023-04-18T11:30:35.380Z,14.14
2023-04-18T11:31:35.414Z,14.28
2023-04-18T11:32:35.436Z,14.29
2023-04-18T11:33:35.373Z,14.32
2023-04-18T11:34:35.342Z,14.21
2023-04-18T11:35:35.419Z,14.22
2023-04-18T11:36:35.324Z,14.32
2023-04-18T11:37:35.324Z,14.29
2023-04-18T11:38:35.321Z,14.28
2023-04-18T11:39:35.351Z,14.29
2023-04-18T11:40:35.324Z,14.27
2023-04-18T11:41:35.284Z,14.25
2023-04-18T11:42:35.254Z,14.27
2023-04-18T11:43:35.294Z,14.29
2023-04-18T11:44:36.219Z,14.29
2023-04-18T11:45:35.234Z,14.37
2023-04-18T11:46:35.310Z,14.39
2023-04-18T11:47:35.246Z,14.43
2023-04-18T11:48:35.190Z,14.39
2023-04-18T11:49:35.179Z,14.51
2023-04-18T11:50:35.182Z,14.58
2023-04-18T11:51:35.192Z,14.64
2023-04-18T11:52:35.207Z,14.83
2023-04-18T11:53:35.151Z,14.96
2023-04-18T11:54:35.129Z,15.13
2023-04-18T11:55:35.135Z,15.19
2023-04-18T11:56:36.783Z,15.16
2023-04-18T11:57:35.093Z,15.20
2023-04-18T11:58:35.085Z,15.20
2023-04-18T11:59:35.071Z,15.20
2023-04-18T12:00:35.090Z,15.13
2023-04-18T12:01:35.078Z,15.09
2023-04-18T12:02:35.118Z,15.07
2023-04-18T12:03:35.207Z,15.09
2023-04-18T12:04:35.141Z,15.19
2023-04-18T12:05:35.299Z,15.32
2023-04-18T12:06:35.010Z,15.43
2023-04-18T12:07:35.012Z,15.67
2023-04-18T12:08:34.985Z,15.78
2023-04-18T12:09:35.046Z,15.82
2023-04-18T12:10:35.255Z,15.84
2023-04-18T12:11:34.936Z,15.90
2023-04-18T12:12:34.924Z,16.09
2023-04-18T12:13:34.931Z,16.33
2023-04-18T12:14:34.961Z,16.50
2023-04-18T12:15:35.089Z,16.60
2023-04-18T12:16:34.956Z,16.46
2023-04-18T12:17:34.933Z,16.30
2023-04-18T12:18:34.865Z,16.11
2023-04-18T12:19:34.884Z,15.89
2023-04-18T12:20:35.176Z,15.72
2023-04-18T12:21:34.828Z,15.64
2023-04-18T12:22:34.816Z,15.56
2023-04-18T12:23:34.808Z,15.57
2023-04-18T12:24:34.827Z,15.57
2023-04-18T12:25:34.824Z,15.67
2023-04-18T12:26:34.849Z,15.68
2023-04-18T12:27:34.761Z,15.57
2023-04-18T12:28:34.791Z,15.47
2023-04-18T12:29:34.745Z,15.38
2023-04-18T12:30:37.399Z,15.36
2023-04-18T12:31:34.914Z,15.32
2023-04-18T12:32:34.730Z,15.29
2023-04-18T12:33:34.702Z,15.29
2023-04-18T12:34:34.721Z,15.28
2023-04-18T12:35:34.747Z,15.28
2023-04-18T12:36:34.741Z,15.34
2023-04-18T12:37:34.694Z,15.32
2023-04-18T12:38:34.652Z,15.32
2023-04-18T12:39:34.652Z,15.41
2023-04-18T12:40:34.645Z,15.71
2023-04-18T12:41:34.703Z,16.04
2023-04-18T12:42:34.593Z,16.17
2023-04-18T12:43:34.597Z,16.17
2023-04-18T12:44:34.573Z,16.05
2023-04-18T12:45:34.581Z,16.00
2023-04-18T12:46:34.704Z,15.94
2023-04-18T12:47:34.602Z,15.87
2023-04-18T12:48:34.612Z,15.89
2023-04-18T12:49:34.536Z,15.92
2023-04-18T12:50:34.538Z,16.17
2023-04-18T12:51:34.565Z,16.17
2023-04-18T12:52:34.505Z,16.14
2023-04-18T12:53:34.485Z,16.23
2023-04-18T12:54:35.600Z,16.15
2023-04-18T12:55:34.494Z,16.11
2023-04-18T12:56:34.444Z,16.04
2023-04-18T12:57:34.480Z,16.01
2023-04-18T12:58:34.427Z,16.28
2023-04-18T12:59:34.418Z,16.64
2023-04-18T13:00:34.455Z,16.82
2023-04-18T13:01:34.509Z,17.12
2023-04-18T13:02:34.513Z,17.31
2023-04-18T13:03:34.463Z,17.34
2023-04-18T13:04:34.743Z,17.49
2023-04-18T13:05:34.383Z,17.64
2023-04-18T13:06:34.340Z,17.71